• Join FlightAware (Why Join?)
  • Login
  • US Flag 
05:32PM EDT


 

Airport Tracker/Info


-or-


 

Live Flight TrackerFlight Track Log ✈ KAL1332 ✈ 24-Mar-2014 ✈ RKJY / RSU - RKSS / GMP

Flight Track Log - Related Links

Times and Time Zones

All times are in EDT time to prevent confusion due to time zone crossing. See the KAL1332 flight status page for this flight to view local times or setup timezone preferences in your user account.

Time Position Orientation Groundspeed Altitude Reporting Facility
EDT Latitude Longitude Course Direction KTS MPH feet Rate Location/Type
07:52PM 34.9116 127.5943 346° North  Level Estimated
07:53PM 34.9833 127.5732 346° North  Level Estimated
07:54PM 35.0570 127.5516 346° North  Level Estimated
07:55PM 35.1307 127.5298 346° North  Level Estimated
07:56PM 35.2044 127.5081 346° North  Level Estimated
07:57PM 35.2781 127.4863 346° North  Level Estimated
07:58PM 35.3607 127.4618 346° North  Level Estimated
07:59PM 35.4433 127.4372 346° North  Level Estimated
08:00PM 35.5259 127.4127 346° North  Level Estimated
08:01PM 35.6085 127.3880 346° North  Level Estimated
08:02PM 35.6911 127.3633 346° North  Level Estimated
08:03PM 35.7737 127.3386 346° North  Level Estimated
08:04PM 35.8563 127.3138 346° North  Level Estimated
08:05PM 35.9389 127.2890 346° North  Level Estimated
08:06PM 36.0214 127.2641 346° North  Level Estimated
08:07PM 36.1040 127.2391 346° North  Level Estimated
08:08PM 36.1866 127.2141 346° North  Level Estimated
08:09PM 36.2691 127.1891 346° North  Level Estimated
08:10PM 36.3517 127.1640 346° North  Level Estimated
08:11PM 36.4342 127.1388 346° North  Level Estimated
08:12PM 36.5167 127.1136 346° North  Level Estimated
08:13PM 36.5993 127.0883 346° North  Level Estimated
08:14PM 36.6818 127.0630 346° North  Level Estimated
08:15PM 36.7643 127.0376 346° North  Level Estimated
08:16PM 36.8469 127.0122 346° North  Level Estimated
08:17PM 36.9294 126.9867 346° North  Level Estimated
08:18PM 37.0119 126.9612 346° North  Level Estimated
08:19PM 37.0944 126.9356 346° North  Level Estimated
08:20PM 37.1769 126.9099 346° North  Level Estimated
08:21PM 37.2594 126.8842 346° North  Level Estimated
08:22PM 37.3419 126.8585 346° North  Level Estimated
08:23PM 37.4243 126.8326 346° North  Level Estimated
08:24PM 37.5068 126.8068 346° North  Level Estimated
08:25PM 37.5583 126.7906 346° North  Level Estimated
08:26PM 37.5583 126.7906 North  Level Estimated
08:27PM 37.5583 126.7906 North  Level Estimated
08:28PM 37.5583 126.7906 North  Level Estimated
08:29PM 37.5583 126.7906 North  Level Estimated
08:30PM 37.5583 126.7906 North  Level Estimated
08:31PM 37.5583 126.7906 North  Level Estimated
08:32PM 37.5583 126.7906 North  Level Estimated